sensor_id;sensor_type;location;lat;lon;timestamp;temperature;humidity
19734;DHT22;10018;51.230;7.860;2022-12-07T00:01:44;4.30;99.90
19734;DHT22;10018;51.230;7.860;2022-12-07T00:04:12;4.30;99.90
19734;DHT22;10018;51.230;7.860;2022-12-07T00:06:40;4.30;99.90
19734;DHT22;10018;51.230;7.860;2022-12-07T00:09:08;4.30;99.90
19734;DHT22;10018;51.230;7.860;2022-12-07T00:11:34;4.20;99.90
19734;DHT22;10018;51.230;7.860;2022-12-07T00:14:03;4.30;99.90
19734;DHT22;10018;51.230;7.860;2022-12-07T00:16:31;4.30;99.90
19734;DHT22;10018;51.230;7.860;2022-12-07T00:18:57;4.30;99.90
19734;DHT22;10018;51.230;7.860;2022-12-07T00:21:25;4.30;99.90
19734;DHT22;10018;51.230;7.860;2022-12-07T00:23:53;4.30;99.90
19734;DHT22;10018;51.230;7.860;2022-12-07T00:26:21;4.30;99.90
19734;DHT22;10018;51.230;7.860;2022-12-07T00:28:48;4.30;99.90
19734;DHT22;10018;51.230;7.860;2022-12-07T00:31:15;4.30;99.90
19734;DHT22;10018;51.230;7.860;2022-12-07T00:33:41;4.40;99.90
19734;DHT22;10018;51.230;7.860;2022-12-07T00:36:09;4.40;99.90
19734;DHT22;10018;51.230;7.860;2022-12-07T00:38:37;4.50;99.90
19734;DHT22;10018;51.230;7.860;2022-12-07T00:41:05;4.40;99.90
19734;DHT22;10018;51.230;7.860;2022-12-07T00:43:31;4.40;99.90
19734;DHT22;10018;51.230;7.860;2022-12-07T00:45:56;4.40;99.90
19734;DHT22;10018;51.230;7.860;2022-12-07T00:48:22;4.40;99.90
19734;DHT22;10018;51.230;7.860;2022-12-07T00:50:48;4.50;99.90
19734;DHT22;10018;51.230;7.860;2022-12-07T00:53:14;4.50;99.90
19734;DHT22;10018;51.230;7.860;2022-12-07T00:55:40;4.60;99.90
19734;DHT22;10018;51.230;7.860;2022-12-07T00:58:06;4.50;99.90
19734;DHT22;10018;51.230;7.860;2022-12-07T01:00:32;4.50;99.90
19734;DHT22;10018;51.230;7.860;2022-12-07T01:02:59;4.50;99.90
19734;DHT22;10018;51.230;7.860;2022-12-07T01:05:24;4.50;99.90
19734;DHT22;10018;51.230;7.860;2022-12-07T01:07:50;4.50;99.90
19734;DHT22;10018;51.230;7.860;2022-12-07T01:10:15;4.50;99.90
19734;DHT22;10018;51.230;7.860;2022-12-07T01:12:41;4.50;99.90
19734;DHT22;10018;51.230;7.860;2022-12-07T01:15:07;4.50;99.90
19734;DHT22;10018;51.230;7.860;2022-12-07T01:17:33;4.50;99.90
19734;DHT22;10018;51.230;7.860;2022-12-07T01:19:59;4.50;99.90
19734;DHT22;10018;51.230;7.860;2022-12-07T01:22:24;4.60;99.90
19734;DHT22;10018;51.230;7.860;2022-12-07T01:24:50;4.60;99.90
19734;DHT22;10018;51.230;7.860;2022-12-07T01:27:15;4.60;99.90
19734;DHT22;10018;51.230;7.860;2022-12-07T01:29:41;4.50;99.90
19734;DHT22;10018;51.230;7.860;2022-12-07T01:32:06;4.50;99.90
19734;DHT22;10018;51.230;7.860;2022-12-07T01:34:32;4.60;99.90
19734;DHT22;10018;51.230;7.860;2022-12-07T01:36:57;4.60;99.90
19734;DHT22;10018;51.230;7.860;2022-12-07T01:39:23;4.60;99.90
19734;DHT22;10018;51.230;7.860;2022-12-07T01:41:49;4.60;99.90
19734;DHT22;10018;51.230;7.860;2022-12-07T01:44:28;4.50;99.90
19734;DHT22;10018;51.230;7.860;2022-12-07T01:46:59;4.60;99.90
19734;DHT22;10018;51.230;7.860;2022-12-07T01:49:29;4.50;99.90
19734;DHT22;10018;51.230;7.860;2022-12-07T01:52:04;4.50;99.90
19734;DHT22;10018;51.230;7.860;2022-12-07T01:54:33;4.40;99.90
19734;DHT22;10018;51.230;7.860;2022-12-07T01:56:59;4.50;99.90
19734;DHT22;10018;51.230;7.860;2022-12-07T01:59:25;4.50;99.90
19734;DHT22;10018;51.230;7.860;2022-12-07T02:01:53;4.50;99.90
19734;DHT22;10018;51.230;7.860;2022-12-07T02:04:19;4.50;99.90
19734;DHT22;10018;51.230;7.860;2022-12-07T02:06:46;4.50;99.90
19734;DHT22;10018;51.230;7.860;2022-12-07T02:09:12;4.60;99.90
19734;DHT22;10018;51.230;7.860;2022-12-07T02:11:39;4.60;99.90
19734;DHT22;10018;51.230;7.860;2022-12-07T02:14:05;4.60;99.90
19734;DHT22;10018;51.230;7.860;2022-12-07T02:16:47;4.60;99.90
19734;DHT22;10018;51.230;7.860;2022-12-07T02:27:52;4.60;99.90
19734;DHT22;10018;51.230;7.860;2022-12-07T02:30:22;4.60;99.90
19734;DHT22;10018;51.230;7.860;2022-12-07T02:33:03;4.50;99.90
19734;DHT22;10018;51.230;7.860;2022-12-07T02:35:39;4.50;99.90
19734;DHT22;10018;51.230;7.860;2022-12-07T02:41:12;4.60;99.90
19734;DHT22;10018;51.230;7.860;2022-12-07T02:43:51;4.60;99.90
19734;DHT22;10018;51.230;7.860;2022-12-07T02:46:25;4.60;99.90
19734;DHT22;10018;51.230;7.860;2022-12-07T02:48:53;4.60;99.90
19734;DHT22;10018;51.230;7.860;2022-12-07T02:51:19;4.60;99.90
19734;DHT22;10018;51.230;7.860;2022-12-07T02:53:46;4.60;99.90
19734;DHT22;10018;51.230;7.860;2022-12-07T02:59:28;4.50;99.90
19734;DHT22;10018;51.230;7.860;2022-12-07T03:07:36;4.50;99.90
19734;DHT22;10018;51.230;7.860;2022-12-07T03:18:36;4.60;99.90
19734;DHT22;10018;51.230;7.860;2022-12-07T03:21:06;4.60;99.90
19734;DHT22;10018;51.230;7.860;2022-12-07T03:23:34;4.60;99.90
19734;DHT22;10018;51.230;7.860;2022-12-07T03:26:02;4.70;99.90
19734;DHT22;10018;51.230;7.860;2022-12-07T03:28:34;4.60;99.90
19734;DHT22;10018;51.230;7.860;2022-12-07T03:31:24;4.60;99.90
19734;DHT22;10018;51.230;7.860;2022-12-07T03:36:43;4.60;99.90
19734;DHT22;10018;51.230;7.860;2022-12-07T03:39:26;4.60;99.90
19734;DHT22;10018;51.230;7.860;2022-12-07T03:41:53;4.70;99.90
19734;DHT22;10018;51.230;7.860;2022-12-07T03:44:20;4.70;99.90
19734;DHT22;10018;51.230;7.860;2022-12-07T03:46:57;4.80;99.90
19734;DHT22;10018;51.230;7.860;2022-12-07T03:49:32;4.70;99.90
19734;DHT22;10018;51.230;7.860;2022-12-07T03:54:59;4.70;99.90
19734;DHT22;10018;51.230;7.860;2022-12-07T03:57:27;4.70;99.90
19734;DHT22;10018;51.230;7.860;2022-12-07T03:59:55;4.70;99.90
19734;DHT22;10018;51.230;7.860;2022-12-07T04:02:22;4.70;99.90
19734;DHT22;10018;51.230;7.860;2022-12-07T04:04:48;4.70;99.90
19734;DHT22;10018;51.230;7.860;2022-12-07T04:07:14;4.70;99.90
19734;DHT22;10018;51.230;7.860;2022-12-07T04:09:40;4.70;99.90
19734;DHT22;10018;51.230;7.860;2022-12-07T04:12:05;4.70;99.90
19734;DHT22;10018;51.230;7.860;2022-12-07T04:14:31;4.70;99.90
19734;DHT22;10018;51.230;7.860;2022-12-07T04:16:58;4.70;99.90
19734;DHT22;10018;51.230;7.860;2022-12-07T04:19:29;4.60;99.90
19734;DHT22;10018;51.230;7.860;2022-12-07T04:21:56;4.60;99.90
19734;DHT22;10018;51.230;7.860;2022-12-07T04:24:22;4.60;99.90
19734;DHT22;10018;51.230;7.860;2022-12-07T04:26:48;4.70;99.90
19734;DHT22;10018;51.230;7.860;2022-12-07T04:29:15;4.70;99.90
19734;DHT22;10018;51.230;7.860;2022-12-07T04:31:41;4.70;99.90
19734;DHT22;10018;51.230;7.860;2022-12-07T04:34:07;4.70;99.90
19734;DHT22;10018;51.230;7.860;2022-12-07T04:36:33;4.70;99.90
19734;DHT22;10018;51.230;7.860;2022-12-07T04:38:59;4.60;99.90
19734;DHT22;10018;51.230;7.860;2022-12-07T04:41:25;4.70;99.90
19734;DHT22;10018;51.230;7.860;2022-12-07T04:43:59;4.70;99.90
19734;DHT22;10018;51.230;7.860;2022-12-07T04:46:26;4.70;99.90
19734;DHT22;10018;51.230;7.860;2022-12-07T04:48:53;4.70;99.90
19734;DHT22;10018;51.230;7.860;2022-12-07T04:51:22;4.70;99.90
19734;DHT22;10018;51.230;7.860;2022-12-07T04:53:48;4.60;99.90
19734;DHT22;10018;51.230;7.860;2022-12-07T04:56:15;4.60;99.90
19734;DHT22;10018;51.230;7.860;2022-12-07T04:58:42;4.60;99.90
19734;DHT22;10018;51.230;7.860;2022-12-07T05:01:08;4.60;99.90
19734;DHT22;10018;51.230;7.860;2022-12-07T05:03:33;4.60;99.90
19734;DHT22;10018;51.230;7.860;2022-12-07T05:05:59;4.60;99.90
19734;DHT22;10018;51.230;7.860;2022-12-07T05:08:25;4.70;99.90
19734;DHT22;10018;51.230;7.860;2022-12-07T05:10:50;4.60;99.90
19734;DHT22;10018;51.230;7.860;2022-12-07T05:13:16;4.60;99.90
19734;DHT22;10018;51.230;7.860;2022-12-07T05:15:41;4.60;99.90
19734;DHT22;10018;51.230;7.860;2022-12-07T05:18:09;4.60;99.90
19734;DHT22;10018;51.230;7.860;2022-12-07T05:20:37;4.60;99.90
19734;DHT22;10018;51.230;7.860;2022-12-07T05:23:02;4.60;99.90
19734;DHT22;10018;51.230;7.860;2022-12-07T05:25:28;4.70;99.90
19734;DHT22;10018;51.230;7.860;2022-12-07T05:27:55;4.60;99.90
19734;DHT22;10018;51.230;7.860;2022-12-07T05:30:21;4.60;99.90
19734;DHT22;10018;51.230;7.860;2022-12-07T05:32:46;4.60;99.90
19734;DHT22;10018;51.230;7.860;2022-12-07T05:35:12;4.60;99.90
19734;DHT22;10018;51.230;7.860;2022-12-07T05:37:37;4.60;99.90
19734;DHT22;10018;51.230;7.860;2022-12-07T05:40:04;4.60;99.90
19734;DHT22;10018;51.230;7.860;2022-12-07T05:42:30;4.60;99.90
19734;DHT22;10018;51.230;7.860;2022-12-07T05:44:55;4.60;99.90
19734;DHT22;10018;51.230;7.860;2022-12-07T05:47:21;4.60;99.90
19734;DHT22;10018;51.230;7.860;2022-12-07T05:49:46;4.60;99.90
19734;DHT22;10018;51.230;7.860;2022-12-07T05:52:12;4.60;99.90
19734;DHT22;10018;51.230;7.860;2022-12-07T05:54:37;4.60;99.90
19734;DHT22;10018;51.230;7.860;2022-12-07T05:57:03;4.60;99.90
19734;DHT22;10018;51.230;7.860;2022-12-07T05:59:29;4.60;99.90
19734;DHT22;10018;51.230;7.860;2022-12-07T06:01:59;4.50;99.90
19734;DHT22;10018;51.230;7.860;2022-12-07T06:04:27;4.50;99.90
19734;DHT22;10018;51.230;7.860;2022-12-07T06:06:53;4.50;99.90
19734;DHT22;10018;51.230;7.860;2022-12-07T06:09:20;4.50;99.90
19734;DHT22;10018;51.230;7.860;2022-12-07T06:11:46;4.50;99.90
19734;DHT22;10018;51.230;7.860;2022-12-07T06:14:30;4.50;99.90
19734;DHT22;10018;51.230;7.860;2022-12-07T06:16:56;4.50;99.90
19734;DHT22;10018;51.230;7.860;2022-12-07T06:19:21;4.40;99.90
19734;DHT22;10018;51.230;7.860;2022-12-07T06:21:47;4.40;99.90
19734;DHT22;10018;51.230;7.860;2022-12-07T06:24:14;4.40;99.90
19734;DHT22;10018;51.230;7.860;2022-12-07T06:26:40;4.40;99.90
19734;DHT22;10018;51.230;7.860;2022-12-07T06:29:05;4.30;99.90
19734;DHT22;10018;51.230;7.860;2022-12-07T06:31:31;4.40;99.90
19734;DHT22;10018;51.230;7.860;2022-12-07T06:34:01;4.40;99.90
19734;DHT22;10018;51.230;7.860;2022-12-07T06:36:27;4.40;99.90
19734;DHT22;10018;51.230;7.860;2022-12-07T06:38:53;4.40;99.90
19734;DHT22;10018;51.230;7.860;2022-12-07T06:41:18;4.40;99.90
19734;DHT22;10018;51.230;7.860;2022-12-07T06:43:44;4.30;99.90
19734;DHT22;10018;51.230;7.860;2022-12-07T06:46:09;4.30;99.90
19734;DHT22;10018;51.230;7.860;2022-12-07T06:48:35;4.30;99.90
19734;DHT22;10018;51.230;7.860;2022-12-07T06:51:01;4.30;99.90
19734;DHT22;10018;51.230;7.860;2022-12-07T06:53:26;4.30;99.90
19734;DHT22;10018;51.230;7.860;2022-12-07T06:55:52;4.40;99.90
19734;DHT22;10018;51.230;7.860;2022-12-07T06:58:18;4.30;99.90
19734;DHT22;10018;51.230;7.860;2022-12-07T07:00:44;4.40;99.90
19734;DHT22;10018;51.230;7.860;2022-12-07T07:03:09;4.30;99.90
19734;DHT22;10018;51.230;7.860;2022-12-07T07:05:35;4.40;99.90
19734;DHT22;10018;51.230;7.860;2022-12-07T07:08:01;4.30;99.90
19734;DHT22;10018;51.230;7.860;2022-12-07T07:10:26;4.30;99.90
19734;DHT22;10018;51.230;7.860;2022-12-07T07:12:52;4.30;99.90
19734;DHT22;10018;51.230;7.860;2022-12-07T07:15:17;4.40;99.90
19734;DHT22;10018;51.230;7.860;2022-12-07T07:17:43;4.40;99.90
19734;DHT22;10018;51.230;7.860;2022-12-07T07:20:09;4.40;99.90
19734;DHT22;10018;51.230;7.860;2022-12-07T07:22:35;4.50;99.90
19734;DHT22;10018;51.230;7.860;2022-12-07T07:25:00;4.50;99.90
19734;DHT22;10018;51.230;7.860;2022-12-07T07:27:26;4.50;99.90
19734;DHT22;10018;51.230;7.860;2022-12-07T07:29:51;4.50;99.90
19734;DHT22;10018;51.230;7.860;2022-12-07T07:32:17;4.50;99.90
19734;DHT22;10018;51.230;7.860;2022-12-07T07:34:42;4.50;99.90
19734;DHT22;10018;51.230;7.860;2022-12-07T07:37:07;4.40;99.90
19734;DHT22;10018;51.230;7.860;2022-12-07T07:39:33;4.40;99.90
19734;DHT22;10018;51.230;7.860;2022-12-07T07:41:58;4.40;99.90
19734;DHT22;10018;51.230;7.860;2022-12-07T07:44:24;4.40;99.90
19734;DHT22;10018;51.230;7.860;2022-12-07T07:46:49;4.40;99.90
19734;DHT22;10018;51.230;7.860;2022-12-07T07:49:15;4.40;99.90
19734;DHT22;10018;51.230;7.860;2022-12-07T07:51:40;4.50;99.90
19734;DHT22;10018;51.230;7.860;2022-12-07T07:54:06;4.40;99.90
19734;DHT22;10018;51.230;7.860;2022-12-07T07:56:31;4.30;99.90
19734;DHT22;10018;51.230;7.860;2022-12-07T07:58:57;4.30;99.90
19734;DHT22;10018;51.230;7.860;2022-12-07T08:01:22;4.40;99.90
19734;DHT22;10018;51.230;7.860;2022-12-07T08:03:48;4.30;99.90
19734;DHT22;10018;51.230;7.860;2022-12-07T08:06:14;4.30;99.90
19734;DHT22;10018;51.230;7.860;2022-12-07T08:08:40;4.30;99.90
19734;DHT22;10018;51.230;7.860;2022-12-07T08:11:07;4.30;99.90
19734;DHT22;10018;51.230;7.860;2022-12-07T08:13:33;4.30;99.90
19734;DHT22;10018;51.230;7.860;2022-12-07T08:16:03;4.30;99.90
19734;DHT22;10018;51.230;7.860;2022-12-07T08:18:29;4.30;99.90
19734;DHT22;10018;51.230;7.860;2022-12-07T08:21:02;4.40;99.90
19734;DHT22;10018;51.230;7.860;2022-12-07T08:23:28;4.30;99.90
19734;DHT22;10018;51.230;7.860;2022-12-07T08:25:53;4.40;99.90
19734;DHT22;10018;51.230;7.860;2022-12-07T08:28:19;4.40;99.90
19734;DHT22;10018;51.230;7.860;2022-12-07T08:30:44;4.30;99.90
19734;DHT22;10018;51.230;7.860;2022-12-07T08:33:10;4.40;99.90
19734;DHT22;10018;51.230;7.860;2022-12-07T08:35:36;4.40;99.90
19734;DHT22;10018;51.230;7.860;2022-12-07T08:38:02;4.40;99.90
19734;DHT22;10018;51.230;7.860;2022-12-07T08:40:29;4.50;99.90
19734;DHT22;10018;51.230;7.860;2022-12-07T08:42:54;4.50;99.90
19734;DHT22;10018;51.230;7.860;2022-12-07T08:45:21;4.60;99.90
19734;DHT22;10018;51.230;7.860;2022-12-07T08:47:56;4.60;99.90
19734;DHT22;10018;51.230;7.860;2022-12-07T08:50:23;4.60;99.90
19734;DHT22;10018;51.230;7.860;2022-12-07T08:52:51;4.60;99.90
19734;DHT22;10018;51.230;7.860;2022-12-07T08:55:19;4.60;99.90
19734;DHT22;10018;51.230;7.860;2022-12-07T08:57:45;4.60;99.90
19734;DHT22;10018;51.230;7.860;2022-12-07T09:00:11;4.60;99.90
19734;DHT22;10018;51.230;7.860;2022-12-07T09:02:37;4.70;99.90
19734;DHT22;10018;51.230;7.860;2022-12-07T09:05:03;4.80;99.90
19734;DHT22;10018;51.230;7.860;2022-12-07T09:07:30;4.80;99.90
19734;DHT22;10018;51.230;7.860;2022-12-07T09:09:57;4.80;99.90
19734;DHT22;10018;51.230;7.860;2022-12-07T09:12:22;4.80;99.90
19734;DHT22;10018;51.230;7.860;2022-12-07T09:14:48;4.90;99.90
19734;DHT22;10018;51.230;7.860;2022-12-07T09:17:13;4.90;99.90
19734;DHT22;10018;51.230;7.860;2022-12-07T09:19:39;4.80;99.90
19734;DHT22;10018;51.230;7.860;2022-12-07T09:22:05;4.90;99.90
19734;DHT22;10018;51.230;7.860;2022-12-07T09:24:31;4.90;99.90
19734;DHT22;10018;51.230;7.860;2022-12-07T09:26:57;4.90;99.90
19734;DHT22;10018;51.230;7.860;2022-12-07T09:29:24;5.00;99.90
19734;DHT22;10018;51.230;7.860;2022-12-07T09:31:51;4.90;99.90
19734;DHT22;10018;51.230;7.860;2022-12-07T09:34:17;4.90;99.90
19734;DHT22;10018;51.230;7.860;2022-12-07T09:36:42;4.90;99.90
19734;DHT22;10018;51.230;7.860;2022-12-07T09:39:09;4.90;99.90
19734;DHT22;10018;51.230;7.860;2022-12-07T09:41:38;5.00;99.90
19734;DHT22;10018;51.230;7.860;2022-12-07T09:44:09;5.10;99.90
19734;DHT22;10018;51.230;7.860;2022-12-07T09:46:38;5.10;99.90
19734;DHT22;10018;51.230;7.860;2022-12-07T09:49:04;5.10;99.90
19734;DHT22;10018;51.230;7.860;2022-12-07T09:51:31;5.10;99.90
19734;DHT22;10018;51.230;7.860;2022-12-07T09:53:58;5.10;99.90
19734;DHT22;10018;51.230;7.860;2022-12-07T09:56:24;5.00;99.90
19734;DHT22;10018;51.230;7.860;2022-12-07T09:58:59;5.00;99.90
19734;DHT22;10018;51.230;7.860;2022-12-07T10:01:33;5.10;99.90
19734;DHT22;10018;51.230;7.860;2022-12-07T10:04:19;5.00;99.90
19734;DHT22;10018;51.230;7.860;2022-12-07T10:06:46;5.10;99.90
19734;DHT22;10018;51.230;7.860;2022-12-07T10:09:15;5.10;99.90
19734;DHT22;10018;51.230;7.860;2022-12-07T10:12:04;5.00;99.90
19734;DHT22;10018;51.230;7.860;2022-12-07T10:14:33;5.00;99.90
19734;DHT22;10018;51.230;7.860;2022-12-07T10:16:59;4.90;99.90
19734;DHT22;10018;51.230;7.860;2022-12-07T10:19:32;4.90;99.90
19734;DHT22;10018;51.230;7.860;2022-12-07T10:22:12;4.80;99.90
19734;DHT22;10018;51.230;7.860;2022-12-07T10:24:38;4.80;99.90
19734;DHT22;10018;51.230;7.860;2022-12-07T10:27:05;4.80;99.90
19734;DHT22;10018;51.230;7.860;2022-12-07T10:29:36;4.80;99.90
19734;DHT22;10018;51.230;7.860;2022-12-07T10:32:27;4.80;99.90
19734;DHT22;10018;51.230;7.860;2022-12-07T10:34:49;4.90;99.90
19734;DHT22;10018;51.230;7.860;2022-12-07T10:37:18;4.90;99.90
19734;DHT22;10018;51.230;7.860;2022-12-07T10:39:47;4.90;99.90
19734;DHT22;10018;51.230;7.860;2022-12-07T10:42:30;4.90;99.90
19734;DHT22;10018;51.230;7.860;2022-12-07T10:45:16;5.00;99.90
19734;DHT22;10018;51.230;7.860;2022-12-07T10:53:35;5.10;99.90
19734;DHT22;10018;51.230;7.860;2022-12-07T11:08:09;5.00;99.90
19734;DHT22;10018;51.230;7.860;2022-12-07T11:10:50;5.00;99.90
19734;DHT22;10018;51.230;7.860;2022-12-07T11:13:38;5.00;99.90
19734;DHT22;10018;51.230;7.860;2022-12-07T11:24:10;5.20;99.90
19734;DHT22;10018;51.230;7.860;2022-12-07T11:26:49;5.20;99.90
19734;DHT22;10018;51.230;7.860;2022-12-07T11:32:18;5.30;99.90
19734;DHT22;10018;51.230;7.860;2022-12-07T11:35:21;5.40;99.90
19734;DHT22;10018;51.230;7.860;2022-12-07T11:37:49;5.40;99.90
19734;DHT22;10018;51.230;7.860;2022-12-07T11:40:43;5.40;99.90
19734;DHT22;10018;51.230;7.860;2022-12-07T11:43:27;5.40;99.90
19734;DHT22;10018;51.230;7.860;2022-12-07T11:46:00;5.40;99.90
19734;DHT22;10018;51.230;7.860;2022-12-07T11:48:38;5.40;99.90
19734;DHT22;10018;51.230;7.860;2022-12-07T11:51:09;5.40;99.90
19734;DHT22;10018;51.230;7.860;2022-12-07T11:53:56;5.30;99.90
19734;DHT22;10018;51.230;7.860;2022-12-07T11:56:25;5.40;99.90
19734;DHT22;10018;51.230;7.860;2022-12-07T12:06:42;5.50;99.90
19734;DHT22;10018;51.230;7.860;2022-12-07T12:09:16;5.50;99.90
19734;DHT22;10018;51.230;7.860;2022-12-07T12:17:36;5.50;99.90
19734;DHT22;10018;51.230;7.860;2022-12-07T12:23:06;5.50;99.90
19734;DHT22;10018;51.230;7.860;2022-12-07T12:28:04;5.50;99.90
19734;DHT22;10018;51.230;7.860;2022-12-07T12:30:33;5.40;99.90
19734;DHT22;10018;51.230;7.860;2022-12-07T12:33:29;5.40;99.90
19734;DHT22;10018;51.230;7.860;2022-12-07T12:44:38;5.40;99.90
19734;DHT22;10018;51.230;7.860;2022-12-07T12:47:00;5.40;99.90
19734;DHT22;10018;51.230;7.860;2022-12-07T12:49:42;5.30;99.90
19734;DHT22;10018;51.230;7.860;2022-12-07T12:54:58;5.10;99.90
19734;DHT22;10018;51.230;7.860;2022-12-07T12:57:28;5.10;99.90
19734;DHT22;10018;51.230;7.860;2022-12-07T13:02:28;5.10;99.90
19734;DHT22;10018;51.230;7.860;2022-12-07T13:05:03;5.10;99.90
19734;DHT22;10018;51.230;7.860;2022-12-07T13:13:02;5.00;99.90
19734;DHT22;10018;51.230;7.860;2022-12-07T13:15:50;5.00;99.90
19734;DHT22;10018;51.230;7.860;2022-12-07T13:24:00;4.90;99.90
19734;DHT22;10018;51.230;7.860;2022-12-07T13:29:17;4.70;99.90
19734;DHT22;10018;51.230;7.860;2022-12-07T13:31:56;4.70;99.90
19734;DHT22;10018;51.230;7.860;2022-12-07T13:34:35;4.70;99.90
19734;DHT22;10018;51.230;7.860;2022-12-07T13:39:49;4.70;99.90
19734;DHT22;10018;51.230;7.860;2022-12-07T13:44:47;4.70;99.90
19734;DHT22;10018;51.230;7.860;2022-12-07T13:50:26;4.80;99.90
19734;DHT22;10018;51.230;7.860;2022-12-07T13:52:55;4.90;99.90
19734;DHT22;10018;51.230;7.860;2022-12-07T13:55:21;4.90;99.90
19734;DHT22;10018;51.230;7.860;2022-12-07T13:57:50;4.80;99.90
19734;DHT22;10018;51.230;7.860;2022-12-07T14:05:41;4.80;99.90
19734;DHT22;10018;51.230;7.860;2022-12-07T14:10:40;4.80;99.90
19734;DHT22;10018;51.230;7.860;2022-12-07T14:15:58;4.80;99.90
19734;DHT22;10018;51.230;7.860;2022-12-07T14:18:37;4.80;99.90
19734;DHT22;10018;51.230;7.860;2022-12-07T14:21:24;4.70;99.90
19734;DHT22;10018;51.230;7.860;2022-12-07T14:24:22;4.70;99.90
19734;DHT22;10018;51.230;7.860;2022-12-07T14:26:49;4.60;99.90
19734;DHT22;10018;51.230;7.860;2022-12-07T14:29:29;4.60;99.90
19734;DHT22;10018;51.230;7.860;2022-12-07T14:31:56;4.60;99.90
19734;DHT22;10018;51.230;7.860;2022-12-07T14:34:23;4.70;99.90
19734;DHT22;10018;51.230;7.860;2022-12-07T14:36:49;4.70;99.90
19734;DHT22;10018;51.230;7.860;2022-12-07T14:39:15;4.70;99.90
19734;DHT22;10018;51.230;7.860;2022-12-07T14:41:41;4.70;99.90
19734;DHT22;10018;51.230;7.860;2022-12-07T14:44:16;4.70;99.90
19734;DHT22;10018;51.230;7.860;2022-12-07T14:46:42;4.70;99.90
19734;DHT22;10018;51.230;7.860;2022-12-07T14:49:07;4.70;99.90
19734;DHT22;10018;51.230;7.860;2022-12-07T14:51:33;4.60;99.90
19734;DHT22;10018;51.230;7.860;2022-12-07T14:54:01;4.60;99.90
19734;DHT22;10018;51.230;7.860;2022-12-07T14:56:26;4.60;99.90
19734;DHT22;10018;51.230;7.860;2022-12-07T14:58:53;4.70;99.90
19734;DHT22;10018;51.230;7.860;2022-12-07T15:01:18;4.70;99.90
19734;DHT22;10018;51.230;7.860;2022-12-07T15:03:44;4.70;99.90
19734;DHT22;10018;51.230;7.860;2022-12-07T15:06:14;4.70;99.90
19734;DHT22;10018;51.230;7.860;2022-12-07T15:08:40;4.70;99.90
19734;DHT22;10018;51.230;7.860;2022-12-07T15:11:05;4.80;99.90
19734;DHT22;10018;51.230;7.860;2022-12-07T15:13:31;4.70;99.90
19734;DHT22;10018;51.230;7.860;2022-12-07T15:16:19;4.70;99.90
19734;DHT22;10018;51.230;7.860;2022-12-07T15:18:45;4.60;99.90
19734;DHT22;10018;51.230;7.860;2022-12-07T15:21:15;4.60;99.90
19734;DHT22;10018;51.230;7.860;2022-12-07T15:23:41;4.50;99.90
19734;DHT22;10018;51.230;7.860;2022-12-07T15:26:07;4.40;99.90
19734;DHT22;10018;51.230;7.860;2022-12-07T15:28:33;4.40;99.90
19734;DHT22;10018;51.230;7.860;2022-12-07T15:30:59;4.40;99.90
19734;DHT22;10018;51.230;7.860;2022-12-07T15:33:24;4.40;99.90
19734;DHT22;10018;51.230;7.860;2022-12-07T15:35:50;4.40;99.90
19734;DHT22;10018;51.230;7.860;2022-12-07T15:38:16;4.40;99.90
19734;DHT22;10018;51.230;7.860;2022-12-07T15:40:41;4.40;99.90
19734;DHT22;10018;51.230;7.860;2022-12-07T15:43:09;4.40;99.90
19734;DHT22;10018;51.230;7.860;2022-12-07T15:45:55;4.40;99.90
19734;DHT22;10018;51.230;7.860;2022-12-07T15:48:20;4.40;99.90
19734;DHT22;10018;51.230;7.860;2022-12-07T15:50:46;4.40;99.90
19734;DHT22;10018;51.230;7.860;2022-12-07T15:53:11;4.40;99.90
19734;DHT22;10018;51.230;7.860;2022-12-07T15:55:39;4.40;99.90
19734;DHT22;10018;51.230;7.860;2022-12-07T15:58:05;4.40;99.90
19734;DHT22;10018;51.230;7.860;2022-12-07T16:00:30;4.40;99.90
19734;DHT22;10018;51.230;7.860;2022-12-07T16:02:56;4.40;99.90
19734;DHT22;10018;51.230;7.860;2022-12-07T16:05:21;4.40;99.90
19734;DHT22;10018;51.230;7.860;2022-12-07T16:07:47;4.30;99.90
19734;DHT22;10018;51.230;7.860;2022-12-07T16:10:13;4.30;99.90
19734;DHT22;10018;51.230;7.860;2022-12-07T16:12:38;4.20;99.90
19734;DHT22;10018;51.230;7.860;2022-12-07T16:15:04;4.20;99.90
19734;DHT22;10018;51.230;7.860;2022-12-07T16:17:30;4.20;99.90
19734;DHT22;10018;51.230;7.860;2022-12-07T16:19:55;4.20;99.90
19734;DHT22;10018;51.230;7.860;2022-12-07T16:22:22;4.20;99.90
19734;DHT22;10018;51.230;7.860;2022-12-07T16:24:48;4.20;99.90
19734;DHT22;10018;51.230;7.860;2022-12-07T16:27:14;4.20;99.90
19734;DHT22;10018;51.230;7.860;2022-12-07T16:29:39;4.20;99.90
19734;DHT22;10018;51.230;7.860;2022-12-07T16:32:05;4.20;99.90
19734;DHT22;10018;51.230;7.860;2022-12-07T16:34:30;4.20;99.90
19734;DHT22;10018;51.230;7.860;2022-12-07T16:36:56;4.10;99.90
19734;DHT22;10018;51.230;7.860;2022-12-07T16:39:21;4.10;99.90
19734;DHT22;10018;51.230;7.860;2022-12-07T16:41:47;4.10;99.90
19734;DHT22;10018;51.230;7.860;2022-12-07T16:44:13;4.00;99.90
19734;DHT22;10018;51.230;7.860;2022-12-07T16:46:39;4.00;99.90
19734;DHT22;10018;51.230;7.860;2022-12-07T16:49:05;3.90;99.90
19734;DHT22;10018;51.230;7.860;2022-12-07T16:51:31;4.00;99.90
19734;DHT22;10018;51.230;7.860;2022-12-07T16:53:56;4.00;99.90
19734;DHT22;10018;51.230;7.860;2022-12-07T16:56:22;3.90;99.90
19734;DHT22;10018;51.230;7.860;2022-12-07T16:58:48;3.90;99.90
19734;DHT22;10018;51.230;7.860;2022-12-07T17:01:20;3.90;99.90
19734;DHT22;10018;51.230;7.860;2022-12-07T17:03:47;3.80;99.90
19734;DHT22;10018;51.230;7.860;2022-12-07T17:06:22;3.80;99.90
19734;DHT22;10018;51.230;7.860;2022-12-07T17:08:48;3.80;99.90
19734;DHT22;10018;51.230;7.860;2022-12-07T17:11:19;3.80;99.90
19734;DHT22;10018;51.230;7.860;2022-12-07T17:13:46;3.80;99.90
19734;DHT22;10018;51.230;7.860;2022-12-07T17:16:30;3.80;99.90
19734;DHT22;10018;51.230;7.860;2022-12-07T17:18:56;3.70;99.90
19734;DHT22;10018;51.230;7.860;2022-12-07T17:21:22;3.70;99.90
19734;DHT22;10018;51.230;7.860;2022-12-07T17:23:48;3.70;99.90
19734;DHT22;10018;51.230;7.860;2022-12-07T17:26:17;3.70;99.90
19734;DHT22;10018;51.230;7.860;2022-12-07T17:28:43;3.70;99.90
19734;DHT22;10018;51.230;7.860;2022-12-07T17:31:11;3.70;99.90
19734;DHT22;10018;51.230;7.860;2022-12-07T17:33:38;3.70;99.90
19734;DHT22;10018;51.230;7.860;2022-12-07T17:36:11;3.70;99.90
19734;DHT22;10018;51.230;7.860;2022-12-07T17:38:37;3.70;99.90
19734;DHT22;10018;51.230;7.860;2022-12-07T17:41:30;3.70;99.90
19734;DHT22;10018;51.230;7.860;2022-12-07T17:44:16;3.70;99.90
19734;DHT22;10018;51.230;7.860;2022-12-07T17:46:43;3.70;99.90
19734;DHT22;10018;51.230;7.860;2022-12-07T17:49:09;3.70;99.90
19734;DHT22;10018;51.230;7.860;2022-12-07T17:51:34;3.70;99.90
19734;DHT22;10018;51.230;7.860;2022-12-07T17:54:19;3.70;99.90
19734;DHT22;10018;51.230;7.860;2022-12-07T17:56:45;3.70;99.90
19734;DHT22;10018;51.230;7.860;2022-12-07T17:59:11;3.70;99.90
19734;DHT22;10018;51.230;7.860;2022-12-07T18:01:37;3.70;99.90
19734;DHT22;10018;51.230;7.860;2022-12-07T18:04:03;3.70;99.90